sensor_id;sensor_type;location;lat;lon;timestamp;P1;durP1;ratioP1;P2;durP2;ratioP2
58842;SDS011;44614;54.356;10.100;2022-11-23T00:02:14;47.22;;;18.77;;
58842;SDS011;44614;54.356;10.100;2022-11-23T00:04:40;45.00;;;17.97;;
58842;SDS011;44614;54.356;10.100;2022-11-23T00:07:05;38.57;;;14.30;;
58842;SDS011;44614;54.356;10.100;2022-11-23T00:09:30;40.00;;;18.38;;
58842;SDS011;44614;54.356;10.100;2022-11-23T00:11:56;43.00;;;18.65;;
58842;SDS011;44614;54.356;10.100;2022-11-23T00:14:21;41.90;;;15.20;;
58842;SDS011;44614;54.356;10.100;2022-11-23T00:16:46;40.17;;;15.40;;
58842;SDS011;44614;54.356;10.100;2022-11-23T00:19:12;39.33;;;16.60;;
58842;SDS011;44614;54.356;10.100;2022-11-23T00:21:37;37.70;;;16.67;;
58842;SDS011;44614;54.356;10.100;2022-11-23T00:24:03;45.15;;;15.95;;
58842;SDS011;44614;54.356;10.100;2022-11-23T00:26:28;41.80;;;16.00;;
58842;SDS011;44614;54.356;10.100;2022-11-23T00:28:54;38.53;;;14.98;;
58842;SDS011;44614;54.356;10.100;2022-11-23T00:31:20;37.38;;;16.02;;
58842;SDS011;44614;54.356;10.100;2022-11-23T00:33:49;45.93;;;18.03;;
58842;SDS011;44614;54.356;10.100;2022-11-23T00:36:16;45.38;;;18.15;;
58842;SDS011;44614;54.356;10.100;2022-11-23T00:38:42;41.03;;;15.75;;
58842;SDS011;44614;54.356;10.100;2022-11-23T00:41:09;43.58;;;16.17;;
58842;SDS011;44614;54.356;10.100;2022-11-23T00:43:37;39.75;;;17.27;;
58842;SDS011;44614;54.356;10.100;2022-11-23T00:46:21;48.30;;;17.03;;
58842;SDS011;44614;54.356;10.100;2022-11-23T00:48:49;45.63;;;17.48;;
58842;SDS011;44614;54.356;10.100;2022-11-23T00:51:16;43.83;;;17.67;;
58842;SDS011;44614;54.356;10.100;2022-11-23T00:53:43;44.90;;;16.50;;
58842;SDS011;44614;54.356;10.100;2022-11-23T00:56:08;34.15;;;14.98;;
58842;SDS011;44614;54.356;10.100;2022-11-23T00:58:34;45.13;;;16.35;;
58842;SDS011;44614;54.356;10.100;2022-11-23T01:03:36;36.65;;;14.73;;
58842;SDS011;44614;54.356;10.100;2022-11-23T01:06:09;35.20;;;14.07;;
58842;SDS011;44614;54.356;10.100;2022-11-23T01:08:39;42.85;;;15.90;;
58842;SDS011;44614;54.356;10.100;2022-11-23T01:11:06;43.63;;;14.57;;
58842;SDS011;44614;54.356;10.100;2022-11-23T01:13:34;31.73;;;13.75;;
58842;SDS011;44614;54.356;10.100;2022-11-23T01:18:26;31.27;;;14.37;;
58842;SDS011;44614;54.356;10.100;2022-11-23T01:20:51;42.95;;;15.30;;
58842;SDS011;44614;54.356;10.100;2022-11-23T01:23:16;36.75;;;14.93;;
58842;SDS011;44614;54.356;10.100;2022-11-23T01:25:42;44.22;;;14.18;;
58842;SDS011;44614;54.356;10.100;2022-11-23T01:28:07;46.03;;;15.18;;
58842;SDS011;44614;54.356;10.100;2022-11-23T01:30:33;30.48;;;12.57;;
58842;SDS011;44614;54.356;10.100;2022-11-23T01:33:00;40.33;;;17.60;;
58842;SDS011;44614;54.356;10.100;2022-11-23T01:35:26;39.38;;;15.60;;
58842;SDS011;44614;54.356;10.100;2022-11-23T01:37:52;33.67;;;14.13;;
58842;SDS011;44614;54.356;10.100;2022-11-23T01:40:17;36.97;;;15.40;;
58842;SDS011;44614;54.356;10.100;2022-11-23T01:42:56;35.90;;;14.83;;
58842;SDS011;44614;54.356;10.100;2022-11-23T01:45:29;41.17;;;15.23;;
58842;SDS011;44614;54.356;10.100;2022-11-23T01:47:58;41.47;;;18.08;;
58842;SDS011;44614;54.356;10.100;2022-11-23T01:50:23;39.67;;;16.35;;
58842;SDS011;44614;54.356;10.100;2022-11-23T01:52:49;32.22;;;14.43;;
58842;SDS011;44614;54.356;10.100;2022-11-23T01:55:15;40.95;;;13.73;;
58842;SDS011;44614;54.356;10.100;2022-11-23T01:57:41;41.10;;;14.70;;
58842;SDS011;44614;54.356;10.100;2022-11-23T02:00:08;38.33;;;14.88;;
58842;SDS011;44614;54.356;10.100;2022-11-23T02:02:34;35.85;;;15.15;;
58842;SDS011;44614;54.356;10.100;2022-11-23T02:05:01;44.13;;;16.48;;
58842;SDS011;44614;54.356;10.100;2022-11-23T02:07:29;38.60;;;13.02;;
58842;SDS011;44614;54.356;10.100;2022-11-23T02:09:57;37.55;;;15.40;;
58842;SDS011;44614;54.356;10.100;2022-11-23T02:12:23;33.40;;;14.80;;
58842;SDS011;44614;54.356;10.100;2022-11-23T02:14:48;41.55;;;15.23;;
58842;SDS011;44614;54.356;10.100;2022-11-23T02:17:15;41.22;;;15.73;;
58842;SDS011;44614;54.356;10.100;2022-11-23T02:24:52;43.15;;;15.73;;
58842;SDS011;44614;54.356;10.100;2022-11-23T02:29:44;44.15;;;15.63;;
58842;SDS011;44614;54.356;10.100;2022-11-23T02:32:12;32.55;;;12.25;;
58842;SDS011;44614;54.356;10.100;2022-11-23T02:34:44;35.30;;;12.98;;
58842;SDS011;44614;54.356;10.100;2022-11-23T02:37:09;37.83;;;15.53;;
58842;SDS011;44614;54.356;10.100;2022-11-23T02:39:36;33.97;;;16.63;;
58842;SDS011;44614;54.356;10.100;2022-11-23T02:42:04;44.90;;;16.20;;
58842;SDS011;44614;54.356;10.100;2022-11-23T02:47:20;36.55;;;13.98;;
58842;SDS011;44614;54.356;10.100;2022-11-23T02:49:46;38.80;;;16.60;;
58842;SDS011;44614;54.356;10.100;2022-11-23T02:52:12;42.08;;;15.40;;
58842;SDS011;44614;54.356;10.100;2022-11-23T02:54:38;36.65;;;14.68;;
58842;SDS011;44614;54.356;10.100;2022-11-23T02:57:04;39.47;;;15.50;;
58842;SDS011;44614;54.356;10.100;2022-11-23T02:59:29;33.00;;;13.30;;
58842;SDS011;44614;54.356;10.100;2022-11-23T03:01:56;29.83;;;14.00;;
58842;SDS011;44614;54.356;10.100;2022-11-23T03:04:22;34.30;;;14.07;;
58842;SDS011;44614;54.356;10.100;2022-11-23T03:06:48;31.70;;;13.50;;
58842;SDS011;44614;54.356;10.100;2022-11-23T03:09:13;37.55;;;14.50;;
58842;SDS011;44614;54.356;10.100;2022-11-23T03:11:38;36.35;;;14.82;;
58842;SDS011;44614;54.356;10.100;2022-11-23T03:14:04;39.70;;;15.07;;
58842;SDS011;44614;54.356;10.100;2022-11-23T03:16:29;31.92;;;13.18;;
58842;SDS011;44614;54.356;10.100;2022-11-23T03:18:55;42.55;;;16.13;;
58842;SDS011;44614;54.356;10.100;2022-11-23T03:21:20;35.42;;;14.98;;
58842;SDS011;44614;54.356;10.100;2022-11-23T03:23:45;38.53;;;14.13;;
58842;SDS011;44614;54.356;10.100;2022-11-23T03:26:10;34.28;;;14.40;;
58842;SDS011;44614;54.356;10.100;2022-11-23T03:28:36;36.00;;;16.63;;
58842;SDS011;44614;54.356;10.100;2022-11-23T03:31:01;29.17;;;14.97;;
58842;SDS011;44614;54.356;10.100;2022-11-23T03:33:26;31.23;;;15.00;;
58842;SDS011;44614;54.356;10.100;2022-11-23T03:35:52;31.80;;;13.90;;
58842;SDS011;44614;54.356;10.100;2022-11-23T03:38:17;33.55;;;13.98;;
58842;SDS011;44614;54.356;10.100;2022-11-23T03:40:43;33.75;;;15.35;;
58842;SDS011;44614;54.356;10.100;2022-11-23T03:43:12;38.90;;;15.68;;
58842;SDS011;44614;54.356;10.100;2022-11-23T03:45:38;30.50;;;13.37;;
58842;SDS011;44614;54.356;10.100;2022-11-23T03:48:05;26.00;;;13.87;;
58842;SDS011;44614;54.356;10.100;2022-11-23T03:50:30;33.90;;;13.48;;
58842;SDS011;44614;54.356;10.100;2022-11-23T03:52:56;40.97;;;13.63;;
58842;SDS011;44614;54.356;10.100;2022-11-23T03:55:21;29.33;;;14.30;;
58842;SDS011;44614;54.356;10.100;2022-11-23T03:57:47;30.98;;;15.57;;
58842;SDS011;44614;54.356;10.100;2022-11-23T04:00:13;26.63;;;14.33;;
58842;SDS011;44614;54.356;10.100;2022-11-23T04:02:39;28.42;;;12.48;;
58842;SDS011;44614;54.356;10.100;2022-11-23T04:05:06;38.42;;;16.48;;
58842;SDS011;44614;54.356;10.100;2022-11-23T04:07:31;33.88;;;13.55;;
58842;SDS011;44614;54.356;10.100;2022-11-23T04:09:57;37.63;;;14.73;;
58842;SDS011;44614;54.356;10.100;2022-11-23T04:12:22;33.00;;;14.10;;
58842;SDS011;44614;54.356;10.100;2022-11-23T04:14:48;36.72;;;14.00;;
58842;SDS011;44614;54.356;10.100;2022-11-23T04:17:13;32.83;;;13.80;;
58842;SDS011;44614;54.356;10.100;2022-11-23T04:19:39;31.02;;;13.23;;
58842;SDS011;44614;54.356;10.100;2022-11-23T04:22:04;38.17;;;14.90;;
58842;SDS011;44614;54.356;10.100;2022-11-23T04:24:29;31.43;;;13.10;;
58842;SDS011;44614;54.356;10.100;2022-11-23T04:26:54;36.73;;;16.57;;
58842;SDS011;44614;54.356;10.100;2022-11-23T04:29:20;37.75;;;13.90;;
58842;SDS011;44614;54.356;10.100;2022-11-23T04:31:45;33.88;;;15.45;;
58842;SDS011;44614;54.356;10.100;2022-11-23T04:34:10;35.85;;;12.85;;
58842;SDS011;44614;54.356;10.100;2022-11-23T04:36:36;34.93;;;14.53;;
58842;SDS011;44614;54.356;10.100;2022-11-23T04:39:01;27.90;;;13.02;;
58842;SDS011;44614;54.356;10.100;2022-11-23T04:41:28;27.20;;;12.97;;
58842;SDS011;44614;54.356;10.100;2022-11-23T04:43:53;32.05;;;14.07;;
58842;SDS011;44614;54.356;10.100;2022-11-23T04:46:19;30.00;;;14.82;;
58842;SDS011;44614;54.356;10.100;2022-11-23T04:48:44;31.33;;;15.40;;
58842;SDS011;44614;54.356;10.100;2022-11-23T04:51:09;38.38;;;14.00;;
58842;SDS011;44614;54.356;10.100;2022-11-23T04:53:35;32.57;;;14.13;;
58842;SDS011;44614;54.356;10.100;2022-11-23T04:56:00;34.75;;;14.38;;
58842;SDS011;44614;54.356;10.100;2022-11-23T04:58:26;38.45;;;14.43;;
58842;SDS011;44614;54.356;10.100;2022-11-23T05:00:51;30.58;;;14.43;;
58842;SDS011;44614;54.356;10.100;2022-11-23T05:03:17;26.83;;;13.77;;
58842;SDS011;44614;54.356;10.100;2022-11-23T05:05:42;36.10;;;16.15;;
58842;SDS011;44614;54.356;10.100;2022-11-23T05:08:08;37.03;;;14.00;;
58842;SDS011;44614;54.356;10.100;2022-11-23T05:10:34;32.55;;;13.57;;
58842;SDS011;44614;54.356;10.100;2022-11-23T05:13:00;34.08;;;15.35;;
58842;SDS011;44614;54.356;10.100;2022-11-23T05:15:26;35.42;;;12.40;;
58842;SDS011;44614;54.356;10.100;2022-11-23T05:17:52;31.58;;;13.25;;
58842;SDS011;44614;54.356;10.100;2022-11-23T05:20:17;30.40;;;14.27;;
58842;SDS011;44614;54.356;10.100;2022-11-23T05:22:42;34.75;;;14.50;;
58842;SDS011;44614;54.356;10.100;2022-11-23T05:25:08;36.22;;;14.35;;
58842;SDS011;44614;54.356;10.100;2022-11-23T05:27:33;30.95;;;15.27;;
58842;SDS011;44614;54.356;10.100;2022-11-23T05:29:59;37.60;;;14.48;;
58842;SDS011;44614;54.356;10.100;2022-11-23T05:32:25;33.45;;;13.82;;
58842;SDS011;44614;54.356;10.100;2022-11-23T05:34:50;31.65;;;12.90;;
58842;SDS011;44614;54.356;10.100;2022-11-23T05:37:15;39.97;;;13.73;;
58842;SDS011;44614;54.356;10.100;2022-11-23T05:39:41;32.70;;;14.63;;
58842;SDS011;44614;54.356;10.100;2022-11-23T05:42:06;28.98;;;14.27;;
58842;SDS011;44614;54.356;10.100;2022-11-23T05:44:31;26.57;;;12.23;;
58842;SDS011;44614;54.356;10.100;2022-11-23T05:46:57;31.48;;;13.10;;
58842;SDS011;44614;54.356;10.100;2022-11-23T05:49:23;32.63;;;13.00;;
58842;SDS011;44614;54.356;10.100;2022-11-23T05:51:48;24.23;;;11.88;;
58842;SDS011;44614;54.356;10.100;2022-11-23T05:54:13;35.70;;;12.47;;
58842;SDS011;44614;54.356;10.100;2022-11-23T05:56:39;31.60;;;12.65;;
58842;SDS011;44614;54.356;10.100;2022-11-23T05:59:05;28.42;;;11.55;;
58842;SDS011;44614;54.356;10.100;2022-11-23T06:01:31;37.85;;;14.85;;
58842;SDS011;44614;54.356;10.100;2022-11-23T06:03:57;29.00;;;13.77;;
58842;SDS011;44614;54.356;10.100;2022-11-23T06:06:23;25.83;;;11.50;;
58842;SDS011;44614;54.356;10.100;2022-11-23T06:08:48;30.77;;;13.93;;
58842;SDS011;44614;54.356;10.100;2022-11-23T06:11:13;31.58;;;13.65;;
58842;SDS011;44614;54.356;10.100;2022-11-23T06:13:39;38.15;;;15.18;;
58842;SDS011;44614;54.356;10.100;2022-11-23T06:16:04;33.27;;;12.30;;
58842;SDS011;44614;54.356;10.100;2022-11-23T06:18:29;30.77;;;13.45;;
58842;SDS011;44614;54.356;10.100;2022-11-23T06:20:58;30.88;;;12.60;;
58842;SDS011;44614;54.356;10.100;2022-11-23T06:23:24;30.50;;;12.05;;
58842;SDS011;44614;54.356;10.100;2022-11-23T06:25:50;33.45;;;13.38;;
58842;SDS011;44614;54.356;10.100;2022-11-23T06:28:15;27.13;;;11.57;;
58842;SDS011;44614;54.356;10.100;2022-11-23T06:30:40;30.67;;;13.10;;
58842;SDS011;44614;54.356;10.100;2022-11-23T06:33:06;27.88;;;12.20;;
58842;SDS011;44614;54.356;10.100;2022-11-23T06:35:31;23.92;;;12.73;;
58842;SDS011;44614;54.356;10.100;2022-11-23T06:37:56;36.50;;;12.40;;
58842;SDS011;44614;54.356;10.100;2022-11-23T06:40:22;29.75;;;11.90;;
58842;SDS011;44614;54.356;10.100;2022-11-23T06:42:48;30.10;;;14.73;;
58842;SDS011;44614;54.356;10.100;2022-11-23T06:45:13;29.33;;;11.88;;
58842;SDS011;44614;54.356;10.100;2022-11-23T06:47:39;27.40;;;13.07;;
58842;SDS011;44614;54.356;10.100;2022-11-23T06:50:04;25.17;;;11.30;;
58842;SDS011;44614;54.356;10.100;2022-11-23T06:52:30;30.80;;;13.10;;
58842;SDS011;44614;54.356;10.100;2022-11-23T06:54:55;30.60;;;13.15;;
58842;SDS011;44614;54.356;10.100;2022-11-23T06:57:21;27.20;;;13.48;;
58842;SDS011;44614;54.356;10.100;2022-11-23T06:59:46;30.55;;;12.90;;
58842;SDS011;44614;54.356;10.100;2022-11-23T07:02:12;28.70;;;12.10;;
58842;SDS011;44614;54.356;10.100;2022-11-23T07:04:38;36.95;;;12.45;;
58842;SDS011;44614;54.356;10.100;2022-11-23T07:07:04;31.98;;;14.13;;
58842;SDS011;44614;54.356;10.100;2022-11-23T07:11:56;22.33;;;10.43;;
58842;SDS011;44614;54.356;10.100;2022-11-23T07:14:21;29.60;;;13.23;;
58842;SDS011;44614;54.356;10.100;2022-11-23T07:16:47;27.85;;;12.63;;
58842;SDS011;44614;54.356;10.100;2022-11-23T07:19:12;23.83;;;10.53;;
58842;SDS011;44614;54.356;10.100;2022-11-23T07:21:37;27.85;;;9.60;;
58842;SDS011;44614;54.356;10.100;2022-11-23T07:24:03;31.93;;;12.63;;
58842;SDS011;44614;54.356;10.100;2022-11-23T07:26:28;24.25;;;10.85;;
58842;SDS011;44614;54.356;10.100;2022-11-23T07:28:53;29.48;;;12.10;;
58842;SDS011;44614;54.356;10.100;2022-11-23T07:31:19;27.43;;;12.03;;
58842;SDS011;44614;54.356;10.100;2022-11-23T07:33:44;27.27;;;11.75;;
58842;SDS011;44614;54.356;10.100;2022-11-23T07:36:10;29.77;;;11.10;;
58842;SDS011;44614;54.356;10.100;2022-11-23T07:38:35;34.95;;;13.35;;
58842;SDS011;44614;54.356;10.100;2022-11-23T07:41:00;25.33;;;11.13;;
58842;SDS011;44614;54.356;10.100;2022-11-23T07:43:27;29.38;;;10.07;;
58842;SDS011;44614;54.356;10.100;2022-11-23T07:45:56;23.90;;;11.52;;
58842;SDS011;44614;54.356;10.100;2022-11-23T07:48:21;25.10;;;10.15;;
58842;SDS011;44614;54.356;10.100;2022-11-23T07:50:50;32.60;;;12.48;;
58842;SDS011;44614;54.356;10.100;2022-11-23T07:53:16;20.92;;;11.80;;
58842;SDS011;44614;54.356;10.100;2022-11-23T07:55:42;29.25;;;12.82;;
58842;SDS011;44614;54.356;10.100;2022-11-23T07:58:08;19.40;;;10.47;;
58842;SDS011;44614;54.356;10.100;2022-11-23T08:00:34;27.92;;;10.88;;
58842;SDS011;44614;54.356;10.100;2022-11-23T08:02:59;19.65;;;10.38;;
58842;SDS011;44614;54.356;10.100;2022-11-23T08:05:24;23.63;;;10.67;;
58842;SDS011;44614;54.356;10.100;2022-11-23T08:07:50;22.25;;;10.27;;
58842;SDS011;44614;54.356;10.100;2022-11-23T08:10:21;23.50;;;9.38;;
58842;SDS011;44614;54.356;10.100;2022-11-23T08:12:46;25.97;;;10.73;;
58842;SDS011;44614;54.356;10.100;2022-11-23T08:15:11;21.42;;;9.98;;
58842;SDS011;44614;54.356;10.100;2022-11-23T08:17:37;23.47;;;11.80;;
58842;SDS011;44614;54.356;10.100;2022-11-23T08:20:02;26.10;;;11.93;;
58842;SDS011;44614;54.356;10.100;2022-11-23T08:22:27;28.55;;;11.73;;
58842;SDS011;44614;54.356;10.100;2022-11-23T08:24:53;25.75;;;12.82;;
58842;SDS011;44614;54.356;10.100;2022-11-23T08:27:18;30.50;;;11.27;;
58842;SDS011;44614;54.356;10.100;2022-11-23T08:29:43;28.35;;;12.02;;
58842;SDS011;44614;54.356;10.100;2022-11-23T08:32:09;25.40;;;11.37;;
58842;SDS011;44614;54.356;10.100;2022-11-23T08:34:35;30.83;;;10.65;;
58842;SDS011;44614;54.356;10.100;2022-11-23T08:37:00;26.13;;;12.33;;
58842;SDS011;44614;54.356;10.100;2022-11-23T08:39:26;24.13;;;12.13;;
58842;SDS011;44614;54.356;10.100;2022-11-23T08:41:51;23.83;;;11.43;;
58842;SDS011;44614;54.356;10.100;2022-11-23T08:44:16;23.33;;;9.90;;
58842;SDS011;44614;54.356;10.100;2022-11-23T08:46:42;28.27;;;10.75;;
58842;SDS011;44614;54.356;10.100;2022-11-23T08:49:07;20.40;;;9.30;;
58842;SDS011;44614;54.356;10.100;2022-11-23T08:51:32;24.27;;;9.32;;
58842;SDS011;44614;54.356;10.100;2022-11-23T08:53:58;22.65;;;10.35;;
58842;SDS011;44614;54.356;10.100;2022-11-23T08:56:23;21.37;;;8.80;;
58842;SDS011;44614;54.356;10.100;2022-11-23T08:58:49;19.48;;;9.82;;
58842;SDS011;44614;54.356;10.100;2022-11-23T09:01:15;20.85;;;9.50;;
58842;SDS011;44614;54.356;10.100;2022-11-23T09:03:41;19.98;;;9.48;;
58842;SDS011;44614;54.356;10.100;2022-11-23T09:06:07;23.40;;;9.80;;
58842;SDS011;44614;54.356;10.100;2022-11-23T09:08:33;20.45;;;8.40;;
58842;SDS011;44614;54.356;10.100;2022-11-23T09:11:00;22.73;;;10.43;;
58842;SDS011;44614;54.356;10.100;2022-11-23T09:13:26;23.33;;;9.40;;
58842;SDS011;44614;54.356;10.100;2022-11-23T09:15:55;18.52;;;8.90;;
58842;SDS011;44614;54.356;10.100;2022-11-23T09:18:21;18.05;;;9.10;;
58842;SDS011;44614;54.356;10.100;2022-11-23T09:20:46;24.70;;;10.03;;
58842;SDS011;44614;54.356;10.100;2022-11-23T09:23:12;18.20;;;8.80;;
58842;SDS011;44614;54.356;10.100;2022-11-23T09:25:37;23.98;;;9.52;;
58842;SDS011;44614;54.356;10.100;2022-11-23T09:28:02;25.00;;;10.53;;
58842;SDS011;44614;54.356;10.100;2022-11-23T09:30:28;18.35;;;8.90;;
58842;SDS011;44614;54.356;10.100;2022-11-23T09:32:54;21.25;;;9.60;;
58842;SDS011;44614;54.356;10.100;2022-11-23T09:35:21;17.33;;;9.70;;
58842;SDS011;44614;54.356;10.100;2022-11-23T09:37:46;21.30;;;8.98;;
58842;SDS011;44614;54.356;10.100;2022-11-23T09:40:14;25.67;;;8.82;;
58842;SDS011;44614;54.356;10.100;2022-11-23T09:45:16;17.53;;;7.80;;
58842;SDS011;44614;54.356;10.100;2022-11-23T09:48:29;19.63;;;9.10;;
58842;SDS011;44614;54.356;10.100;2022-11-23T09:56:19;28.63;;;10.57;;
58842;SDS011;44614;54.356;10.100;2022-11-23T09:58:47;15.90;;;6.72;;
58842;SDS011;44614;54.356;10.100;2022-11-23T10:01:17;19.30;;;8.82;;
58842;SDS011;44614;54.356;10.100;2022-11-23T10:03:43;15.27;;;7.78;;
58842;SDS011;44614;54.356;10.100;2022-11-23T10:06:20;24.50;;;8.95;;
58842;SDS011;44614;54.356;10.100;2022-11-23T10:11:22;15.87;;;8.27;;
58842;SDS011;44614;54.356;10.100;2022-11-23T10:13:59;23.38;;;9.07;;
58842;SDS011;44614;54.356;10.100;2022-11-23T10:16:47;14.75;;;6.63;;
58842;SDS011;44614;54.356;10.100;2022-11-23T10:19:37;14.98;;;7.00;;
58842;SDS011;44614;54.356;10.100;2022-11-23T10:25:22;20.73;;;8.02;;
58842;SDS011;44614;54.356;10.100;2022-11-23T10:27:48;18.83;;;7.28;;
58842;SDS011;44614;54.356;10.100;2022-11-23T10:30:16;11.73;;;5.85;;
58842;SDS011;44614;54.356;10.100;2022-11-23T10:32:44;15.18;;;7.32;;
58842;SDS011;44614;54.356;10.100;2022-11-23T10:35:22;16.35;;;7.10;;
58842;SDS011;44614;54.356;10.100;2022-11-23T10:37:59;15.40;;;6.47;;
58842;SDS011;44614;54.356;10.100;2022-11-23T10:40:35;16.42;;;7.65;;
58842;SDS011;44614;54.356;10.100;2022-11-23T10:43:08;19.23;;;8.93;;
58842;SDS011;44614;54.356;10.100;2022-11-23T10:45:39;21.65;;;8.45;;
58842;SDS011;44614;54.356;10.100;2022-11-23T10:48:04;13.05;;;6.93;;
58842;SDS011;44614;54.356;10.100;2022-11-23T10:55:30;17.02;;;5.82;;
58842;SDS011;44614;54.356;10.100;2022-11-23T10:57:57;15.98;;;6.03;;
58842;SDS011;44614;54.356;10.100;2022-11-23T11:00:23;11.63;;;5.83;;
58842;SDS011;44614;54.356;10.100;2022-11-23T11:02:51;15.75;;;6.70;;
58842;SDS011;44614;54.356;10.100;2022-11-23T11:05:23;14.90;;;7.35;;
58842;SDS011;44614;54.356;10.100;2022-11-23T11:08:01;12.93;;;7.70;;
58842;SDS011;44614;54.356;10.100;2022-11-23T11:10:43;14.55;;;7.47;;
58842;SDS011;44614;54.356;10.100;2022-11-23T11:13:27;13.55;;;5.47;;
58842;SDS011;44614;54.356;10.100;2022-11-23T11:15:55;13.13;;;5.78;;
58842;SDS011;44614;54.356;10.100;2022-11-23T11:18:27;10.77;;;5.97;;
58842;SDS011;44614;54.356;10.100;2022-11-23T11:21:14;14.50;;;5.78;;
58842;SDS011;44614;54.356;10.100;2022-11-23T11:24:14;13.70;;;5.72;;
58842;SDS011;44614;54.356;10.100;2022-11-23T11:26:48;9.27;;;5.63;;
58842;SDS011;44614;54.356;10.100;2022-11-23T11:29:23;12.63;;;5.05;;
58842;SDS011;44614;54.356;10.100;2022-11-23T11:31:52;13.40;;;5.80;;
58842;SDS011;44614;54.356;10.100;2022-11-23T11:34:23;16.27;;;7.30;;
58842;SDS011;44614;54.356;10.100;2022-11-23T11:37:19;15.55;;;6.00;;
58842;SDS011;44614;54.356;10.100;2022-11-23T11:40:08;14.13;;;6.85;;
58842;SDS011;44614;54.356;10.100;2022-11-23T11:42:41;11.50;;;5.53;;
58842;SDS011;44614;54.356;10.100;2022-11-23T11:45:14;14.00;;;6.20;;
58842;SDS011;44614;54.356;10.100;2022-11-23T11:47:44;18.27;;;6.78;;
58842;SDS011;44614;54.356;10.100;2022-11-23T11:50:26;15.82;;;6.03;;
58842;SDS011;44614;54.356;10.100;2022-11-23T11:53:09;12.25;;;4.57;;
58842;SDS011;44614;54.356;10.100;2022-11-23T11:55:47;12.95;;;6.10;;
58842;SDS011;44614;54.356;10.100;2022-11-23T11:58:20;11.10;;;5.55;;
58842;SDS011;44614;54.356;10.100;2022-11-23T12:00:49;15.50;;;5.75;;
58842;SDS011;44614;54.356;10.100;2022-11-23T12:03:33;12.13;;;5.93;;
58842;SDS011;44614;54.356;10.100;2022-11-23T12:06:27;12.00;;;5.45;;
58842;SDS011;44614;54.356;10.100;2022-11-23T12:11:34;13.57;;;5.43;;
58842;SDS011;44614;54.356;10.100;2022-11-23T12:14:01;10.37;;;4.70;;
58842;SDS011;44614;54.356;10.100;2022-11-23T12:19:23;14.23;;;6.43;;
58842;SDS011;44614;54.356;10.100;2022-11-23T12:27:29;13.70;;;5.93;;
58842;SDS011;44614;54.356;10.100;2022-11-23T12:30:27;11.88;;;5.75;;
58842;SDS011;44614;54.356;10.100;2022-11-23T12:35:54;10.73;;;6.05;;
58842;SDS011;44614;54.356;10.100;2022-11-23T12:43:44;13.05;;;5.80;;
58842;SDS011;44614;54.356;10.100;2022-11-23T12:48:58;11.80;;;5.28;;
58842;SDS011;44614;54.356;10.100;2022-11-23T13:05:47;11.25;;;4.97;;
58842;SDS011;44614;54.356;10.100;2022-11-23T13:16:39;13.33;;;7.37;;
58842;SDS011;44614;54.356;10.100;2022-11-23T13:19:10;11.35;;;5.28;;
58842;SDS011;44614;54.356;10.100;2022-11-23T13:21:42;13.55;;;6.07;;
58842;SDS011;44614;54.356;10.100;2022-11-23T13:42:53;13.43;;;4.93;;
58842;SDS011;44614;54.356;10.100;2022-11-23T13:45:22;14.52;;;4.20;;
58842;SDS011;44614;54.356;10.100;2022-11-23T13:48:37;11.43;;;5.10;;
58842;SDS011;44614;54.356;10.100;2022-11-23T13:53:25;9.15;;;3.97;;
58842;SDS011;44614;54.356;10.100;2022-11-23T13:55:54;10.75;;;5.35;;
58842;SDS011;44614;54.356;10.100;2022-11-23T14:09:17;12.43;;;5.00;;
58842;SDS011;44614;54.356;10.100;2022-11-23T14:14:42;12.32;;;4.53;;
58842;SDS011;44614;54.356;10.100;2022-11-23T14:32:57;9.90;;;5.00;;
58842;SDS011;44614;54.356;10.100;2022-11-23T14:41:21;10.05;;;4.35;;
58842;SDS011;44614;54.356;10.100;2022-11-23T14:43:48;8.43;;;3.95;;
58842;SDS011;44614;54.356;10.100;2022-11-23T14:46:18;12.02;;;5.22;;
58842;SDS011;44614;54.356;10.100;2022-11-23T14:48:46;10.95;;;4.70;;
58842;SDS011;44614;54.356;10.100;2022-11-23T14:51:22;12.93;;;6.25;;
58842;SDS011;44614;54.356;10.100;2022-11-23T14:53:51;10.88;;;5.55;;
58842;SDS011;44614;54.356;10.100;2022-11-23T14:59:09;17.65;;;5.82;;
58842;SDS011;44614;54.356;10.100;2022-11-23T15:01:58;15.95;;;5.88;;
58842;SDS011;44614;54.356;10.100;2022-11-23T15:04:44;12.02;;;4.90;;
58842;SDS011;44614;54.356;10.100;2022-11-23T15:07:22;14.02;;;6.07;;
58842;SDS011;44614;54.356;10.100;2022-11-23T15:17:53;9.98;;;5.72;;
58842;SDS011;44614;54.356;10.100;2022-11-23T15:20:25;14.27;;;5.40;;
58842;SDS011;44614;54.356;10.100;2022-11-23T15:22:56;11.07;;;5.30;;
58842;SDS011;44614;54.356;10.100;2022-11-23T15:25:23;19.52;;;5.82;;
58842;SDS011;44614;54.356;10.100;2022-11-23T15:27:48;12.45;;;5.22;;
58842;SDS011;44614;54.356;10.100;2022-11-23T15:30:15;16.55;;;5.68;;
58842;SDS011;44614;54.356;10.100;2022-11-23T15:32:42;9.00;;;4.47;;
58842;SDS011;44614;54.356;10.100;2022-11-23T15:35:11;11.43;;;4.60;;
58842;SDS011;44614;54.356;10.100;2022-11-23T15:37:44;14.23;;;5.43;;
58842;SDS011;44614;54.356;10.100;2022-11-23T15:40:15;16.70;;;5.97;;
58842;SDS011;44614;54.356;10.100;2022-11-23T15:42:42;14.27;;;6.25;;
58842;SDS011;44614;54.356;10.100;2022-11-23T15:48:29;7.97;;;4.38;;
58842;SDS011;44614;54.356;10.100;2022-11-23T15:50:58;8.23;;;4.25;;
58842;SDS011;44614;54.356;10.100;2022-11-23T15:53:58;14.55;;;6.10;;
58842;SDS011;44614;54.356;10.100;2022-11-23T15:58:56;13.05;;;5.50;;
58842;SDS011;44614;54.356;10.100;2022-11-23T16:01:24;11.68;;;5.72;;
58842;SDS011;44614;54.356;10.100;2022-11-23T16:03:59;11.95;;;5.72;;
58842;SDS011;44614;54.356;10.100;2022-11-23T16:12:23;7.35;;;4.93;;
58842;SDS011;44614;54.356;10.100;2022-11-23T16:14:51;14.25;;;6.13;;
58842;SDS011;44614;54.356;10.100;2022-11-23T16:17:42;11.40;;;5.18;;
58842;SDS011;44614;54.356;10.100;2022-11-23T16:20:12;12.43;;;4.43;;
58842;SDS011;44614;54.356;10.100;2022-11-23T16:22:39;16.08;;;5.80;;
58842;SDS011;44614;54.356;10.100;2022-11-23T16:25:19;12.40;;;5.28;;
58842;SDS011;44614;54.356;10.100;2022-11-23T16:27:46;11.05;;;4.40;;
58842;SDS011;44614;54.356;10.100;2022-11-23T16:31:04;11.10;;;5.40;;
58842;SDS011;44614;54.356;10.100;2022-11-23T16:33:14;12.73;;;4.88;;
58842;SDS011;44614;54.356;10.100;2022-11-23T16:35:41;12.38;;;6.85;;
58842;SDS011;44614;54.356;10.100;2022-11-23T16:38:07;12.65;;;5.28;;
58842;SDS011;44614;54.356;10.100;2022-11-23T16:40:32;11.68;;;4.68;;
58842;SDS011;44614;54.356;10.100;2022-11-23T16:42:58;14.75;;;6.32;;
58842;SDS011;44614;54.356;10.100;2022-11-23T16:45:23;12.32;;;5.75;;
58842;SDS011;44614;54.356;10.100;2022-11-23T16:47:53;13.50;;;5.80;;
58842;SDS011;44614;54.356;10.100;2022-11-23T16:50:21;15.48;;;7.30;;
58842;SDS011;44614;54.356;10.100;2022-11-23T16:52:47;12.82;;;4.88;;
58842;SDS011;44614;54.356;10.100;2022-11-23T16:55:13;7.57;;;4.28;;
58842;SDS011;44614;54.356;10.100;2022-11-23T16:57:38;11.35;;;5.30;;
58842;SDS011;44614;54.356;10.100;2022-11-23T17:00:05;11.50;;;4.85;;
58842;SDS011;44614;54.356;10.100;2022-11-23T17:02:41;12.88;;;6.57;;